Eveleth, MN (55734)

8:32 AM CDT on August 30, 2015 (GMT -0500)
Eveleth-Virginia Municipal | | Change Station
CLOSE
Current Station
Airport
Location: Eveleth,
Elevation: 1378 ft
Nearby Weather Stations

Elev 1378 ft 47.43 °N, 92.50 °W | Updated 20 minutes ago

Overcast
Overcast
63 °F
Feels Like 63 °F
N
6
Wind Variable Wind from SSW

Today
High -- | Low -- °F
--% Chance of Precip.
Yesterday
High -- | Low -- °F
Precip. -- in
6:25 AM 7:54 PM
Full, 99% visible
Pressure 29.95 in
Visibility 10.0 miles
Clouds Overcast 400 ft
Dew Point 61 °F
Humidity 94%
Rainfall 0.00 in
Snow Depth Not available.
UV 0 out of 12
Pollen 10.10 out of 12
Air Quality Not available.
Flu Activity Not available.
METAR KEVM 301312Z AUTO 21005KT 10SM OVC004 17/16 A2995 RMK AO2
Pressure 29.95 in
Visibility 10.0 miles
Clouds Overcast 400 ft
Dew Point 61 °F
Humidity 94%
Rainfall 0.00 in
Snow Depth Not available.
UV 0 out of 12
Pollen 10.10 out of 12
Air Quality Not available.
Flu Activity Not available.
METAR KEVM 301312Z AUTO 21005KT 10SM OVC004 17/16 A2995 RMK AO2

10-Day Weather Forecast

×

Almanac

Astronomy

Aug. 30, 2015 Rise Set
Actual Time
Civil Twilight
Nautical Twilight
Astronomical Twilight
Moon
Length of Visible Light
Length of Day
Tomorrow will be .
, % of the Moon is Illuminated

Today's Extremes

State Highs State Lows

Community

WunderPhotos

Upload Photos

1,850,953 photos uploaded!

WunderBlogs® & News

Nearby

Air Quality

  Air Quality AQ Index Pollutant
Not available.

Snow Depth

Station Depth Elevation

Earthquake Activity

City Distance Mag. Time & Date
Minimum magnitude displayed is 2.5.

Coastal Water Temperatures

Place Temperature

Stations

Nearby Weather Stations

Station Location Temp. Windchill Dew Point Humidity Wind Precip. Elev Updated Type